createdAt,value
2023-01-31T00:00:48.369Z,17.95
2023-01-31T00:03:36.465Z,16.55
2023-01-31T00:06:28.188Z,20.25
2023-01-31T00:09:16.101Z,22.83
2023-01-31T00:12:03.839Z,29.42
2023-01-31T00:14:51.421Z,20.50
2023-01-31T00:17:39.699Z,23.05
2023-01-31T00:20:27.564Z,23.17
2023-01-31T00:23:15.211Z,21.00
2023-01-31T00:26:12.800Z,22.02
2023-01-31T00:29:02.382Z,18.95
2023-01-31T00:31:50.996Z,19.92
2023-01-31T00:34:38.589Z,22.83
2023-01-31T00:37:27.312Z,17.25
2023-01-31T00:40:14.915Z,26.48
2023-01-31T00:43:02.385Z,18.38
2023-01-31T00:45:49.936Z,18.38
2023-01-31T00:48:37.886Z,20.27
2023-01-31T00:51:26.999Z,22.45
2023-01-31T00:54:17.235Z,14.32
2023-01-31T00:57:04.810Z,19.08
2023-01-31T00:59:52.455Z,17.83
2023-01-31T01:02:39.954Z,21.52
2023-01-31T01:05:27.496Z,13.20
2023-01-31T01:08:15.116Z,15.32
2023-01-31T01:11:17.385Z,15.40
2023-01-31T01:14:05.239Z,10.10
2023-01-31T01:16:53.719Z,20.45
2023-01-31T01:19:41.604Z,13.75
2023-01-31T01:22:30.871Z,9.70
2023-01-31T01:25:18.955Z,14.45
2023-01-31T01:28:06.787Z,10.57
2023-01-31T01:30:54.392Z,11.60
2023-01-31T01:33:42.699Z,13.70
2023-01-31T01:36:34.659Z,16.52
2023-01-31T01:39:23.225Z,15.52
2023-01-31T01:42:18.588Z,29.23
2023-01-31T01:45:15.969Z,21.05
2023-01-31T01:48:08.904Z,16.10
2023-01-31T01:50:57.581Z,18.33
2023-01-31T01:53:47.774Z,32.03
2023-01-31T01:56:40.585Z,25.77
2023-01-31T01:59:44.968Z,21.88
2023-01-31T02:02:32.659Z,18.95
2023-01-31T02:05:28.189Z,27.27
2023-01-31T02:08:18.824Z,21.02
2023-01-31T02:11:14.127Z,22.92
2023-01-31T02:14:05.688Z,28.95
2023-01-31T02:16:53.547Z,26.70
2023-01-31T02:19:48.379Z,20.67
2023-01-31T02:22:45.586Z,20.40
2023-01-31T02:26:15.924Z,25.98
2023-01-31T02:29:32.973Z,21.63
2023-01-31T02:32:37.066Z,18.27
2023-01-31T02:38:30.467Z,20.65
2023-01-31T02:41:44.369Z,29.77
2023-01-31T02:45:01.958Z,31.52
2023-01-31T02:48:02.192Z,31.05
2023-01-31T02:51:15.883Z,25.55
2023-01-31T02:54:11.644Z,25.90
2023-01-31T02:56:59.355Z,22.45
2023-01-31T02:59:47.026Z,25.02
2023-01-31T03:02:34.688Z,31.70
2023-01-31T03:05:23.256Z,20.77
2023-01-31T03:08:16.335Z,27.63
2023-01-31T03:11:07.328Z,24.67
2023-01-31T03:14:04.171Z,26.98
2023-01-31T03:17:33.722Z,28.88
2023-01-31T03:20:47.186Z,22.65
2023-01-31T03:23:38.505Z,34.83
2023-01-31T03:26:29.329Z,21.23
2023-01-31T03:29:20.401Z,23.10
2023-01-31T03:32:33.739Z,28.55
2023-01-31T03:35:25.808Z,26.00
2023-01-31T03:38:24.844Z,19.92
2023-01-31T03:41:23.825Z,24.55
2023-01-31T03:44:30.566Z,30.27
2023-01-31T03:47:24.912Z,22.20
2023-01-31T03:50:26.858Z,33.03
2023-01-31T03:53:26.566Z,23.67
2023-01-31T03:56:44.924Z,25.52
2023-01-31T03:59:41.007Z,36.13
2023-01-31T04:02:35.154Z,21.52
2023-01-31T04:05:30.636Z,21.65
2023-01-31T04:08:18.643Z,21.15
2023-01-31T04:11:09.643Z,21.95
2023-01-31T04:13:57.244Z,32.40
2023-01-31T04:16:44.980Z,28.40
2023-01-31T04:19:32.555Z,24.63
2023-01-31T04:22:20.225Z,29.60
2023-01-31T04:25:08.238Z,30.52
2023-01-31T04:27:55.802Z,25.25
2023-01-31T04:30:43.414Z,27.77
2023-01-31T04:33:31.119Z,29.40
2023-01-31T04:36:18.854Z,26.60
2023-01-31T04:39:06.557Z,22.20
2023-01-31T04:41:54.200Z,23.08
2023-01-31T04:44:41.780Z,26.25
2023-01-31T04:47:29.276Z,25.17
2023-01-31T04:50:17.049Z,25.75
2023-01-31T04:53:04.979Z,23.85
2023-01-31T04:55:55.698Z,16.40
2023-01-31T04:58:43.560Z,23.95
2023-01-31T05:01:31.905Z,24.90
2023-01-31T05:04:22.450Z,33.42
2023-01-31T05:07:10.226Z,17.30
2023-01-31T05:09:57.889Z,28.35
2023-01-31T05:12:46.896Z,21.65
2023-01-31T05:15:34.671Z,35.03
2023-01-31T05:18:22.317Z,22.35
2023-01-31T05:21:11.335Z,36.80
2023-01-31T05:23:58.858Z,17.60
2023-01-31T05:26:47.544Z,21.92
2023-01-31T05:29:35.191Z,22.80
2023-01-31T05:32:22.853Z,18.80
2023-01-31T05:35:10.503Z,22.52
2023-01-31T05:37:58.817Z,23.83
2023-01-31T05:40:47.208Z,21.70
2023-01-31T05:43:36.379Z,27.10
2023-01-31T05:46:24.729Z,29.75
2023-01-31T05:49:13.498Z,26.80
2023-01-31T05:52:01.902Z,32.53
2023-01-31T05:54:49.784Z,21.88
2023-01-31T05:57:37.424Z,18.50
2023-01-31T06:00:25.219Z,34.45
2023-01-31T06:03:12.819Z,25.83
2023-01-31T06:06:00.611Z,25.50
2023-01-31T06:08:48.515Z,25.73
2023-01-31T06:11:36.289Z,28.50
2023-01-31T06:14:24.142Z,22.83
2023-01-31T06:17:12.022Z,17.83
2023-01-31T06:20:00.234Z,25.58
2023-01-31T06:22:47.941Z,25.48
2023-01-31T06:25:35.546Z,17.55
2023-01-31T06:28:23.955Z,23.63
2023-01-31T06:31:12.955Z,32.97
2023-01-31T06:34:01.140Z,19.92
2023-01-31T06:36:48.724Z,22.63
2023-01-31T06:39:36.538Z,21.33
2023-01-31T06:42:24.487Z,25.42
2023-01-31T06:45:12.528Z,18.80
2023-01-31T06:48:00.055Z,25.02
2023-01-31T06:50:48.031Z,28.35
2023-01-31T06:53:35.892Z,27.88
2023-01-31T06:56:27.042Z,20.48
2023-01-31T06:59:34.015Z,19.83
2023-01-31T07:02:24.424Z,29.60
2023-01-31T07:05:19.938Z,25.95
2023-01-31T07:08:24.691Z,23.63
2023-01-31T07:11:38.085Z,24.92
2023-01-31T07:14:48.974Z,18.00
2023-01-31T07:17:54.209Z,22.15
2023-01-31T07:21:00.833Z,27.67
2023-01-31T07:23:48.630Z,21.80
2023-01-31T07:26:43.356Z,25.73
2023-01-31T07:29:36.270Z,27.90
2023-01-31T07:32:33.748Z,22.70
2023-01-31T07:35:22.094Z,22.10
2023-01-31T07:38:11.343Z,24.90
2023-01-31T07:41:03.667Z,19.52
2023-01-31T07:43:52.098Z,25.15
2023-01-31T07:46:44.323Z,20.48
2023-01-31T07:49:32.099Z,24.20
2023-01-31T07:52:19.845Z,24.63
2023-01-31T07:55:08.311Z,24.65
2023-01-31T07:57:56.243Z,22.80
2023-01-31T08:01:02.703Z,26.38
2023-01-31T08:03:52.823Z,22.58
2023-01-31T08:06:42.749Z,25.38
2023-01-31T08:09:30.967Z,26.73
2023-01-31T08:12:20.705Z,24.65
2023-01-31T08:15:08.901Z,25.15
2023-01-31T08:17:56.450Z,20.02
2023-01-31T08:20:44.168Z,21.13
2023-01-31T08:23:51.776Z,26.45
2023-01-31T08:26:39.769Z,22.42
2023-01-31T08:29:27.775Z,30.05
2023-01-31T08:32:15.452Z,18.15
2023-01-31T08:35:03.328Z,24.15
2023-01-31T08:37:58.554Z,25.60
2023-01-31T08:40:51.621Z,20.23
2023-01-31T08:43:54.368Z,24.10
2023-01-31T08:49:36.750Z,30.58
2023-01-31T08:52:35.394Z,19.25
2023-01-31T08:55:24.241Z,18.05
2023-01-31T08:58:12.027Z,28.30
2023-01-31T09:01:08.885Z,26.50
2023-01-31T09:03:58.227Z,16.67
2023-01-31T09:06:45.807Z,19.38
2023-01-31T09:09:33.890Z,25.27
2023-01-31T09:12:21.716Z,23.80
2023-01-31T09:15:09.750Z,23.77
2023-01-31T09:17:57.901Z,32.63
2023-01-31T09:20:48.149Z,23.27
2023-01-31T09:23:36.346Z,29.15
2023-01-31T09:26:24.513Z,30.02
2023-01-31T09:29:12.251Z,30.33
2023-01-31T09:32:03.255Z,30.17
2023-01-31T09:34:51.114Z,35.75
2023-01-31T09:37:39.552Z,28.77
2023-01-31T09:40:33.195Z,26.63
2023-01-31T09:43:25.454Z,28.55
2023-01-31T09:46:16.850Z,30.55
2023-01-31T09:49:07.146Z,33.08
2023-01-31T09:52:02.034Z,22.98
2023-01-31T09:54:49.731Z,29.67
2023-01-31T09:57:55.635Z,28.98
2023-01-31T10:00:52.204Z,28.38
2023-01-31T10:03:56.748Z,34.90
2023-01-31T10:06:55.815Z,32.47
2023-01-31T10:10:05.841Z,29.80
2023-01-31T10:12:58.234Z,28.48
2023-01-31T10:15:57.072Z,38.63
2023-01-31T10:18:58.780Z,33.10
2023-01-31T10:21:51.851Z,34.67
2023-01-31T10:24:48.059Z,26.80
2023-01-31T10:27:49.408Z,33.30
2023-01-31T10:30:51.753Z,27.30
2023-01-31T10:33:51.524Z,27.17
2023-01-31T10:37:13.879Z,30.05
2023-01-31T10:40:06.250Z,25.88
2023-01-31T10:43:01.252Z,31.92
2023-01-31T10:45:48.819Z,33.03
2023-01-31T10:48:36.331Z,31.92
2023-01-31T10:51:50.036Z,24.58
2023-01-31T10:55:05.313Z,26.83
2023-01-31T10:58:02.486Z,24.60
2023-01-31T11:00:51.116Z,27.00
2023-01-31T11:03:39.135Z,28.88
2023-01-31T11:06:26.826Z,30.20
2023-01-31T11:09:15.431Z,30.95
2023-01-31T11:12:05.848Z,39.83
2023-01-31T11:15:10.352Z,36.22
2023-01-31T11:18:01.113Z,27.80
2023-01-31T11:20:48.727Z,36.45
2023-01-31T11:23:37.246Z,30.40
2023-01-31T11:26:39.930Z,29.15
2023-01-31T11:29:37.024Z,29.23
2023-01-31T11:32:28.245Z,28.40
2023-01-31T11:35:15.752Z,30.58
2023-01-31T11:38:22.703Z,25.58
2023-01-31T11:41:32.096Z,36.90
2023-01-31T11:44:22.097Z,28.58
2023-01-31T11:47:13.383Z,28.02
2023-01-31T11:50:04.307Z,32.03
2023-01-31T11:53:07.661Z,28.60
2023-01-31T11:56:28.216Z,26.07
2023-01-31T11:59:37.756Z,23.13
2023-01-31T12:02:57.283Z,23.58
2023-01-31T12:05:55.457Z,26.27
2023-01-31T12:08:43.206Z,24.50
2023-01-31T12:11:34.028Z,22.20
2023-01-31T12:14:25.660Z,25.13
2023-01-31T12:17:18.432Z,26.25
2023-01-31T12:20:28.943Z,21.15
2023-01-31T12:23:26.995Z,22.60
2023-01-31T12:26:46.175Z,25.25
2023-01-31T12:29:54.038Z,18.00
2023-01-31T12:33:22.082Z,19.77
2023-01-31T12:36:25.694Z,17.58
2023-01-31T12:40:24.615Z,18.15
2023-01-31T12:43:59.979Z,17.52
2023-01-31T12:47:22.460Z,18.85
2023-01-31T12:50:30.475Z,22.08
2023-01-31T12:53:52.086Z,20.75
2023-01-31T12:56:56.399Z,28.30
2023-01-31T13:03:14.481Z,22.73
2023-01-31T13:06:04.484Z,20.40
2023-01-31T13:09:08.211Z,21.42
2023-01-31T13:12:14.486Z,24.48
2023-01-31T13:15:34.292Z,23.65
2023-01-31T13:18:24.219Z,28.98
2023-01-31T13:21:18.986Z,24.15
2023-01-31T13:24:13.947Z,35.40
2023-01-31T13:30:56.949Z,25.40
2023-01-31T13:34:30.802Z,28.13
2023-01-31T13:37:49.281Z,24.95
2023-01-31T13:40:59.901Z,26.92
2023-01-31T13:55:38.475Z,33.78
2023-01-31T13:58:32.442Z,31.33
2023-01-31T14:01:52.914Z,32.28
2023-01-31T14:04:41.011Z,32.95
2023-01-31T14:07:29.583Z,34.85
2023-01-31T14:10:20.207Z,27.17
2023-01-31T14:13:49.486Z,34.30
2023-01-31T14:16:47.687Z,28.25
2023-01-31T14:19:50.277Z,35.50
2023-01-31T14:22:41.555Z,33.83
2023-01-31T14:25:47.267Z,45.25
2023-01-31T14:28:44.020Z,33.47
2023-01-31T14:31:32.513Z,45.10
2023-01-31T14:34:33.001Z,42.63
2023-01-31T14:37:56.704Z,42.00
2023-01-31T14:41:22.486Z,47.97
2023-01-31T14:44:46.333Z,42.03
2023-01-31T14:48:06.023Z,36.20
2023-01-31T14:51:07.529Z,45.28
2023-01-31T14:54:41.506Z,47.63
2023-01-31T14:57:42.242Z,45.78
2023-01-31T15:00:39.222Z,63.38
2023-01-31T15:03:56.919Z,44.90
2023-01-31T15:07:22.353Z,46.27
2023-01-31T15:10:57.987Z,43.67
2023-01-31T15:14:06.044Z,37.95
2023-01-31T15:20:49.100Z,43.08
2023-01-31T15:24:08.317Z,35.67
2023-01-31T15:27:14.245Z,39.15
2023-01-31T15:33:27.077Z,41.58
2023-01-31T15:36:30.675Z,40.05
2023-01-31T15:39:54.225Z,47.42
2023-01-31T15:42:46.535Z,40.85
2023-01-31T15:45:35.068Z,39.60
2023-01-31T15:48:34.979Z,38.47
2023-01-31T15:51:46.810Z,36.35
2023-01-31T15:54:59.206Z,34.55
2023-01-31T16:05:07.798Z,38.72
2023-01-31T16:12:31.209Z,34.05
2023-01-31T16:15:53.323Z,38.50
2023-01-31T16:19:01.858Z,34.33
2023-01-31T16:21:55.507Z,32.17
2023-01-31T16:31:54.779Z,24.90
2023-01-31T16:38:29.934Z,35.50
2023-01-31T16:41:22.690Z,33.17
2023-01-31T16:44:52.160Z,38.40
2023-01-31T16:47:57.793Z,27.20
2023-01-31T16:50:56.939Z,31.92
2023-01-31T16:54:00.584Z,34.10
2023-01-31T16:57:43.411Z,31.23
2023-01-31T17:04:07.706Z,33.40
2023-01-31T17:07:24.577Z,26.55
2023-01-31T17:10:36.872Z,38.65
2023-01-31T17:13:29.700Z,31.55
2023-01-31T17:16:28.287Z,31.65
2023-01-31T17:19:32.011Z,30.42
2023-01-31T17:22:32.130Z,30.10
2023-01-31T17:25:25.783Z,27.25
2023-01-31T17:28:13.689Z,30.42
2023-01-31T17:31:02.405Z,25.50
2023-01-31T17:33:55.130Z,22.88
2023-01-31T17:36:53.629Z,31.13
2023-01-31T17:39:42.595Z,23.80
2023-01-31T17:42:31.912Z,22.02
2023-01-31T17:45:20.794Z,21.60
2023-01-31T17:48:11.727Z,22.35
2023-01-31T17:51:08.612Z,19.50
2023-01-31T17:53:56.817Z,21.65
2023-01-31T17:56:45.486Z,19.00
2023-01-31T17:59:38.160Z,20.25
2023-01-31T18:02:26.836Z,16.13
2023-01-31T18:05:20.147Z,14.43
2023-01-31T18:08:23.565Z,15.20
2023-01-31T18:11:54.643Z,10.80
2023-01-31T18:15:06.076Z,10.30
2023-01-31T18:18:03.944Z,11.18
2023-01-31T18:20:57.996Z,9.60
2023-01-31T18:24:02.003Z,8.60
2023-01-31T18:27:12.238Z,10.13
2023-01-31T18:30:50.443Z,9.15
2023-01-31T18:40:57.064Z,10.63
2023-01-31T18:51:21.790Z,10.68
2023-01-31T18:54:18.883Z,8.25
2023-01-31T18:57:14.909Z,7.47
2023-01-31T19:00:06.654Z,9.07
2023-01-31T19:03:02.242Z,8.27
2023-01-31T19:05:50.395Z,9.57
2023-01-31T19:08:38.585Z,11.23
2023-01-31T19:11:28.548Z,7.45
2023-01-31T19:14:16.515Z,9.55
2023-01-31T19:17:04.751Z,7.97
2023-01-31T19:19:52.674Z,11.05
2023-01-31T19:22:40.368Z,6.80
2023-01-31T19:25:30.557Z,6.70
2023-01-31T19:28:28.317Z,6.80
2023-01-31T19:31:26.035Z,8.38
2023-01-31T19:34:34.017Z,8.85
2023-01-31T19:37:29.391Z,8.80
2023-01-31T19:40:25.561Z,10.52
2023-01-31T19:43:13.289Z,11.95
2023-01-31T19:46:04.296Z,11.25
2023-01-31T19:48:52.021Z,7.70
2023-01-31T19:51:41.518Z,7.60
2023-01-31T19:54:30.958Z,7.95
2023-01-31T19:57:18.907Z,7.35
2023-01-31T20:00:13.755Z,6.68
2023-01-31T20:03:01.850Z,7.50
2023-01-31T20:05:50.279Z,8.18
2023-01-31T20:08:38.776Z,7.57
2023-01-31T20:11:29.123Z,8.15
2023-01-31T20:14:20.036Z,5.75
2023-01-31T20:17:08.220Z,5.40
2023-01-31T20:19:59.231Z,6.40
2023-01-31T20:22:46.967Z,5.80
2023-01-31T20:25:34.647Z,6.22
2023-01-31T20:28:25.079Z,8.55
2023-01-31T20:31:15.063Z,5.63
2023-01-31T20:34:03.111Z,6.90
2023-01-31T20:36:56.312Z,5.95
2023-01-31T20:39:44.352Z,6.50
2023-01-31T20:42:32.921Z,5.40
2023-01-31T20:45:35.366Z,6.20
2023-01-31T20:51:53.797Z,8.45
2023-01-31T20:54:41.691Z,8.50
2023-01-31T20:57:30.099Z,8.07
2023-01-31T21:00:22.532Z,9.07
2023-01-31T21:03:13.561Z,10.38
2023-01-31T21:06:04.416Z,7.82
2023-01-31T21:08:52.084Z,8.75
2023-01-31T21:11:39.837Z,12.93
2023-01-31T21:14:28.191Z,9.65
2023-01-31T21:17:16.092Z,11.85
2023-01-31T21:20:06.665Z,11.63
2023-01-31T21:22:54.431Z,11.18
2023-01-31T21:25:42.693Z,13.05
2023-01-31T21:28:30.899Z,12.63
2023-01-31T21:31:22.688Z,13.40
2023-01-31T21:34:13.590Z,13.48
2023-01-31T21:37:04.145Z,10.00
2023-01-31T21:39:52.143Z,9.02
2023-01-31T21:42:44.181Z,11.27
2023-01-31T21:45:42.273Z,12.20
2023-01-31T21:48:29.982Z,10.13
2023-01-31T21:51:19.730Z,10.88
2023-01-31T21:54:10.477Z,10.13
2023-01-31T21:56:58.681Z,8.82
2023-01-31T21:59:47.608Z,10.50
2023-01-31T22:02:38.150Z,8.88
2023-01-31T22:05:25.965Z,7.90
2023-01-31T22:08:13.743Z,9.95
2023-01-31T22:11:02.402Z,8.95
2023-01-31T22:13:56.058Z,14.30
2023-01-31T22:16:45.196Z,12.65
2023-01-31T22:19:32.874Z,11.32
2023-01-31T22:22:20.718Z,9.23
2023-01-31T22:25:10.497Z,7.82
2023-01-31T22:27:58.297Z,11.75
2023-01-31T22:30:56.463Z,10.95
2023-01-31T22:33:44.561Z,11.57
2023-01-31T22:36:33.471Z,13.40
2023-01-31T22:39:21.538Z,11.30
2023-01-31T22:42:11.425Z,11.35
2023-01-31T22:44:59.449Z,9.20
2023-01-31T22:47:47.338Z,8.00
2023-01-31T22:50:37.494Z,8.95
2023-01-31T22:53:27.610Z,11.07
2023-01-31T22:56:18.679Z,8.93
2023-01-31T22:59:09.745Z,11.15
2023-01-31T23:01:57.817Z,9.43
2023-01-31T23:04:48.173Z,9.70
2023-01-31T23:07:36.076Z,9.73
2023-01-31T23:10:25.285Z,10.32
2023-01-31T23:13:13.281Z,8.60
2023-01-31T23:16:01.749Z,8.50
2023-01-31T23:18:49.759Z,11.00
2023-01-31T23:21:42.745Z,10.10
2023-01-31T23:24:30.686Z,14.00
2023-01-31T23:27:18.650Z,11.20
2023-01-31T23:30:07.761Z,11.10
2023-01-31T23:32:55.600Z,9.30
2023-01-31T23:35:43.422Z,9.60
2023-01-31T23:38:31.359Z,11.57
2023-01-31T23:41:19.175Z,11.68
2023-01-31T23:44:07.336Z,9.43
2023-01-31T23:46:55.083Z,10.82
2023-01-31T23:49:42.906Z,9.43
2023-01-31T23:52:31.171Z,8.68
2023-01-31T23:55:19.067Z,12.57
2023-01-31T23:58:07.014Z,11.45
